Time;durP1;ratioP1;P1;durP2;ratioP2;P2;SDS_P1;SDS_P2;PMS_P1;PMS_P2;Temp;Humidity;BMP_temperature;BMP_pressure;BME280_temperature;BME280_humidity;BME280_pressure;Samples;Min_cycle;Max_cycle;Signal;HPM_P1;HPM_P2
2023/11/23 00:00:09;;;;;;;4.85;2.60;;;13.50;73.60;;;;;;5020786;28;20041;-77
2023/11/23 00:02:36;;;;;;;5.10;1.80;;;13.50;74.20;;;;;;5022439;28;20292;-78
2023/11/23 00:05:03;;;;;;;3.85;2.20;;;13.50;74.00;;;;;;5017258;28;20436;-77
2023/11/23 00:07:31;;;;;;;6.03;1.98;;;13.50;73.60;;;;;;5019575;28;20041;-77
2023/11/23 00:09:57;;;;;;;4.93;2.20;;;13.50;73.70;;;;;;5018628;28;20064;-77
2023/11/23 00:12:24;;;;;;;3.97;2.00;;;13.50;73.70;;;;;;5016984;28;20041;-76
2023/11/23 00:14:53;;;;;;;5.03;2.80;;;13.50;74.20;;;;;;5023239;28;20029;-77
2023/11/23 00:17:20;;;;;;;4.00;1.80;;;13.50;73.70;;;;;;5022031;28;20102;-77
2023/11/23 00:19:47;;;;;;;5.03;2.72;;;13.50;73.70;;;;;;5015670;28;20091;-77
2023/11/23 00:22:16;;;;;;;6.47;2.45;;;13.50;73.70;;;;;;5023288;28;20051;-77
2023/11/23 00:24:43;;;;;;;2.30;1.98;;;13.50;73.70;;;;;;5029949;28;20476;-77
2023/11/23 00:27:14;;;;;;;4.35;2.67;;;13.50;73.70;;;;;;5021391;28;20496;-77
2023/11/23 00:29:41;;;;;;;6.10;2.28;;;13.50;73.70;;;;;;5037086;28;20037;-77
2023/11/23 00:32:12;;;;;;;6.15;1.92;;;13.50;73.70;;;;;;5025589;28;20890;-77
2023/11/23 00:34:39;;;;;;;6.63;2.58;;;13.50;73.70;;;;;;5020531;28;20377;-76
2023/11/23 00:37:07;;;;;;;4.45;2.38;;;13.50;73.70;;;;;;5027733;28;20047;-77
2023/11/23 00:39:34;;;;;;;3.85;2.55;;;13.50;73.80;;;;;;5023067;28;20025;-77
2023/11/23 00:42:01;;;;;;;3.38;2.55;;;13.50;73.80;;;;;;5008228;28;20574;-76
2023/11/23 00:44:27;;;;;;;7.25;2.75;;;13.50;73.80;;;;;;5018341;28;20067;-78
2023/11/23 00:46:53;;;;;;;4.75;3.08;;;13.50;73.80;;;;;;5023233;28;20033;-77
2023/11/23 00:49:19;;;;;;;7.25;2.90;;;13.50;73.90;;;;;;5021827;28;20108;-78
2023/11/23 00:51:46;;;;;;;6.18;2.60;;;13.50;73.90;;;;;;5016658;28;20052;-78
2023/11/23 00:54:12;;;;;;;3.88;2.40;;;13.50;73.90;;;;;;5018359;28;20021;-77
2023/11/23 00:56:38;;;;;;;5.10;2.88;;;13.50;73.90;;;;;;5017840;28;20021;-77
2023/11/23 00:59:16;;;;;;;5.45;2.80;;;13.50;73.90;;;;;;5005300;28;20086;-78
2023/11/23 01:01:44;;;;;;;3.58;2.30;;;13.50;73.90;;;;;;5017448;28;20194;-77
2023/11/23 01:04:11;;;;;;;4.88;2.10;;;13.50;73.90;;;;;;5019555;28;20124;-77
2023/11/23 01:06:38;;;;;;;3.53;2.47;;;13.50;73.90;;;;;;5033613;28;20049;-77
2023/11/23 01:09:05;;;;;;;3.78;2.10;;;13.50;73.90;;;;;;5012988;28;20685;-77
2023/11/23 01:11:32;;;;;;;4.47;2.10;;;13.50;74.00;;;;;;5020378;28;20034;-77
2023/11/23 01:13:59;;;;;;;4.93;2.58;;;13.50;74.00;;;;;;5031804;28;20033;-77
2023/11/23 01:16:26;;;;;;;4.40;2.03;;;13.50;74.00;;;;;;5020462;28;20036;-77
2023/11/23 01:18:52;;;;;;;3.22;1.77;;;13.40;73.80;;;;;;5023926;28;20144;-77
2023/11/23 01:21:19;;;;;;;4.05;2.28;;;13.50;74.00;;;;;;5017984;28;20537;-78
2023/11/23 01:23:45;;;;;;;2.67;1.80;;;13.50;74.00;;;;;;5021845;28;20060;-78
2023/11/23 01:26:12;;;;;;;2.88;1.88;;;13.40;73.80;;;;;;5021971;28;20076;-78
2023/11/23 01:28:39;;;;;;;5.53;2.45;;;13.50;74.00;;;;;;5018491;28;20032;-78
2023/11/23 01:31:06;;;;;;;2.83;2.20;;;13.40;73.80;;;;;;5020261;28;20041;-77
2023/11/23 01:33:32;;;;;;;3.30;2.00;;;13.50;74.00;;;;;;5021455;28;20385;-77
2023/11/23 01:35:59;;;;;;;2.40;1.88;;;13.40;73.90;;;;;;5023603;28;20040;-78
2023/11/23 01:38:26;;;;;;;2.80;1.83;;;13.40;73.90;;;;;;5019912;28;20038;-77
2023/11/23 01:40:56;;;;;;;4.20;2.22;;;13.40;73.90;;;;;;5023575;28;20386;-77
2023/11/23 01:43:26;;;;;;;4.88;1.80;;;13.40;73.90;;;;;;5034220;28;20456;-79
2023/11/23 01:45:52;;;;;;;3.80;2.20;;;13.40;73.90;;;;;;5024246;28;20076;-77
2023/11/23 01:48:21;;;;;;;4.57;1.98;;;13.40;74.00;;;;;;5033492;28;20033;-77
2023/11/23 01:50:49;;;;;;;3.30;2.10;;;13.40;74.00;;;;;;5020390;28;20017;-76
2023/11/23 01:53:17;;;;;;;5.45;2.00;;;13.40;74.00;;;;;;5053066;28;20471;-75
2023/11/23 01:55:44;;;;;;;2.25;1.70;;;13.40;74.00;;;;;;5023026;28;20033;-77
2023/11/23 01:58:14;;;;;;;5.03;2.00;;;13.40;74.00;;;;;;5032218;28;20115;-76
2023/11/23 02:00:41;;;;;;;3.33;2.03;;;13.30;73.90;;;;;;5023649;28;20032;-76
2023/11/23 02:03:08;;;;;;;2.38;1.73;;;13.30;73.90;;;;;;5020902;28;20033;-76
2023/11/23 02:05:34;;;;;;;3.78;2.08;;;13.30;73.90;;;;;;5024573;28;20053;-77
2023/11/23 02:08:05;;;;;;;3.40;2.10;;;13.30;73.90;;;;;;5025196;28;20059;-76
2023/11/23 02:10:31;;;;;;;2.78;1.75;;;13.30;74.00;;;;;;5027038;28;20061;-76
2023/11/23 02:12:57;;;;;;;3.70;2.15;;;13.30;73.90;;;;;;5022798;28;20645;-76
2023/11/23 02:15:24;;;;;;;3.65;2.00;;;13.30;73.90;;;;;;5040418;28;20085;-76
2023/11/23 02:18:06;;;;;;;3.00;2.03;;;13.30;74.00;;;;;;5023204;28;20029;-76
2023/11/23 02:20:33;;;;;;;7.95;2.70;;;13.30;74.00;;;;;;5038154;28;20029;-77
2023/11/23 02:23:00;;;;;;;3.22;2.45;;;13.30;73.90;;;;;;5036162;28;20044;-76
2023/11/23 02:25:26;;;;;;;3.30;2.10;;;13.30;73.90;;;;;;5016584;28;20033;-76
2023/11/23 02:27:52;;;;;;;4.05;2.20;;;13.30;73.90;;;;;;5017471;28;20478;-76
2023/11/23 02:30:19;;;;;;;2.42;2.00;;;13.30;74.00;;;;;;5017373;28;20034;-75
2023/11/23 02:32:50;;;;;;;4.78;2.22;;;13.30;74.00;;;;;;5021164;28;20091;-76
2023/11/23 02:35:19;;;;;;;3.00;2.20;;;13.20;73.80;;;;;;5019506;28;20033;-76
2023/11/23 02:37:46;;;;;;;3.25;3.03;;;13.20;73.80;;;;;;5027229;28;20041;-76
2023/11/23 02:40:12;;;;;;;4.35;2.63;;;13.20;73.90;;;;;;5020145;28;20053;-76
2023/11/23 02:42:39;;;;;;;3.20;2.63;;;13.20;73.90;;;;;;5034557;28;20025;-76
2023/11/23 02:45:07;;;;;;;4.32;2.90;;;13.20;73.90;;;;;;5023679;28;20303;-76
2023/11/23 02:47:33;;;;;;;5.95;3.92;;;13.20;73.90;;;;;;5036517;28;20037;-76
2023/11/23 02:49:59;;;;;;;4.25;2.78;;;13.20;74.50;;;;;;5026267;28;20393;-75
2023/11/23 02:52:26;;;;;;;3.75;3.05;;;13.20;74.00;;;;;;5022186;28;20120;-76
2023/11/23 02:54:52;;;;;;;4.70;3.05;;;13.10;73.80;;;;;;5029258;28;20022;-76
2023/11/23 02:57:18;;;;;;;5.28;3.38;;;13.20;74.10;;;;;;5032218;28;20048;-77
2023/11/23 02:59:44;;;;;;;3.53;3.17;;;13.20;74.10;;;;;;5023133;28;20389;-78
2023/11/23 03:02:10;;;;;;;3.40;3.10;;;13.10;73.90;;;;;;5025807;28;20049;-77
2023/11/23 03:04:37;;;;;;;4.75;3.53;;;13.10;73.90;;;;;;5016150;28;20061;-78
2023/11/23 03:07:03;;;;;;;5.10;3.92;;;13.10;73.90;;;;;;5028173;28;20079;-78
2023/11/23 03:09:29;;;;;;;5.43;3.40;;;13.10;73.90;;;;;;5025302;28;20026;-77
2023/11/23 03:11:55;;;;;;;4.03;2.97;;;13.10;73.90;;;;;;5026670;28;20042;-77
2023/11/23 03:14:21;;;;;;;3.10;2.80;;;13.10;74.00;;;;;;5032678;28;20083;-78
2023/11/23 03:16:50;;;;;;;3.13;2.80;;;13.10;74.00;;;;;;5023330;28;20025;-77
2023/11/23 03:19:17;;;;;;;4.53;3.40;;;13.10;74.00;;;;;;5022890;28;20501;-78
2023/11/23 03:21:43;;;;;;;3.40;3.03;;;13.10;74.00;;;;;;5036474;28;20018;-77
2023/11/23 03:24:09;;;;;;;4.78;3.20;;;13.10;74.10;;;;;;5023169;28;20546;-77
2023/11/23 03:26:36;;;;;;;3.75;3.38;;;13.10;74.10;;;;;;5014560;28;20037;-78
2023/11/23 03:29:03;;;;;;;7.53;3.25;;;13.10;74.10;;;;;;5023078;28;20037;-78
2023/11/23 03:31:29;;;;;;;5.13;3.20;;;13.10;74.10;;;;;;5021694;28;20057;-79
2023/11/23 03:33:54;;;;;;;3.92;3.17;;;13.10;74.10;;;;;;5026101;28;20076;-78
2023/11/23 03:36:20;;;;;;;4.45;3.10;;;13.10;74.10;;;;;;5030863;28;20037;-77
2023/11/23 03:38:47;;;;;;;3.25;2.95;;;13.10;74.10;;;;;;5009939;28;20140;-78
2023/11/23 03:41:13;;;;;;;3.22;2.88;;;13.10;74.10;;;;;;5029793;28;20050;-78
2023/11/23 03:43:39;;;;;;;4.85;3.20;;;13.10;74.10;;;;;;5027929;28;20084;-77
2023/11/23 03:46:06;;;;;;;3.55;2.95;;;13.10;74.10;;;;;;5026096;28;20129;-76
2023/11/23 03:48:32;;;;;;;3.72;3.40;;;13.10;74.10;;;;;;5028689;28;20195;-76
2023/11/23 03:50:58;;;;;;;3.72;3.00;;;13.10;74.10;;;;;;5021996;28;20091;-76
2023/11/23 03:53:24;;;;;;;6.55;3.25;;;13.10;74.10;;;;;;5031561;28;20060;-76
2023/11/23 03:55:51;;;;;;;3.17;2.95;;;13.10;74.10;;;;;;5028372;28;20026;-75
2023/11/23 03:58:17;;;;;;;4.30;2.55;;;13.10;74.10;;;;;;5019320;28;20038;-76
2023/11/23 04:00:44;;;;;;;4.05;3.63;;;13.10;74.10;;;;;;5028932;28;20082;-76
2023/11/23 04:03:10;;;;;;;5.00;3.08;;;13.10;74.10;;;;;;5031723;28;20025;-76
2023/11/23 04:05:37;;;;;;;3.33;3.03;;;13.10;74.10;;;;;;5019704;28;20543;-76
2023/11/23 04:08:04;;;;;;;5.40;3.13;;;13.10;74.10;;;;;;5007686;28;20099;-76
2023/11/23 04:10:31;;;;;;;3.35;2.60;;;13.10;74.10;;;;;;5036432;28;20444;-75
2023/11/23 04:12:57;;;;;;;4.30;3.28;;;13.10;74.60;;;;;;5022688;28;20045;-75
2023/11/23 04:15:23;;;;;;;5.60;3.50;;;13.10;74.10;;;;;;5027998;28;20362;-76
2023/11/23 04:17:49;;;;;;;5.97;3.80;;;13.10;74.00;;;;;;5028348;28;20039;-75
2023/11/23 04:20:16;;;;;;;4.63;3.35;;;13.10;74.00;;;;;;5026243;28;20370;-76
2023/11/23 04:22:42;;;;;;;5.05;4.03;;;13.10;74.10;;;;;;5026392;28;20040;-78
2023/11/23 04:25:08;;;;;;;6.50;4.20;;;13.10;74.10;;;;;;5025437;28;20061;-78
2023/11/23 04:27:34;;;;;;;4.35;3.85;;;13.10;74.10;;;;;;5026762;28;20031;-78
2023/11/23 04:30:00;;;;;;;6.60;4.68;;;13.00;73.90;;;;;;5020485;28;20029;-78
2023/11/23 04:32:26;;;;;;;5.50;4.47;;;13.00;74.00;;;;;;5022891;28;20052;-78
2023/11/23 04:34:52;;;;;;;6.80;4.53;;;13.00;74.00;;;;;;5028027;28;20025;-78
2023/11/23 04:37:23;;;;;;;7.05;4.75;;;13.00;74.00;;;;;;5026465;28;20034;-78
2023/11/23 04:39:51;;;;;;;5.68;5.18;;;13.00;74.10;;;;;;5023374;28;20242;-78
2023/11/23 04:42:17;;;;;;;6.57;5.32;;;12.90;73.90;;;;;;5025281;28;20230;-78
2023/11/23 04:44:44;;;;;;;6.68;5.72;;;12.90;74.40;;;;;;5027123;28;20048;-78
2023/11/23 04:47:10;;;;;;;6.30;5.70;;;12.90;73.90;;;;;;5028240;28;20393;-77
2023/11/23 04:49:38;;;;;;;7.00;5.45;;;12.90;73.90;;;;;;5025740;28;20386;-77
2023/11/23 04:52:08;;;;;;;5.30;4.80;;;12.90;73.90;;;;;;5026394;28;20112;-77
2023/11/23 04:54:35;;;;;;;6.10;5.38;;;12.90;73.90;;;;;;5024320;28;20018;-77
2023/11/23 04:57:02;;;;;;;6.80;5.60;;;12.90;74.00;;;;;;5028329;28;20068;-77
2023/11/23 04:59:30;;;;;;;6.20;4.80;;;12.90;74.00;;;;;;5028047;28;20346;-77
2023/11/23 05:01:57;;;;;;;6.00;5.40;;;12.80;73.80;;;;;;5033619;28;20040;-78
2023/11/23 05:04:24;;;;;;;6.18;5.32;;;12.80;73.80;;;;;;5017678;28;20436;-77
2023/11/23 05:06:51;;;;;;;6.25;5.10;;;12.80;74.30;;;;;;5032114;28;20044;-78
2023/11/23 05:09:17;;;;;;;5.93;4.82;;;12.80;73.80;;;;;;5026221;28;20047;-78
2023/11/23 05:11:44;;;;;;;4.90;3.78;;;12.80;73.90;;;;;;5028337;28;20037;-77
2023/11/23 05:14:11;;;;;;;8.40;4.65;;;12.80;73.90;;;;;;5026704;28;20030;-77
2023/11/23 05:16:37;;;;;;;5.05;4.00;;;12.70;73.70;;;;;;5017269;28;20033;-77
2023/11/23 05:19:04;;;;;;;4.80;4.30;;;12.70;73.70;;;;;;5031916;28;20532;-76
2023/11/23 05:21:30;;;;;;;4.95;4.25;;;12.70;73.70;;;;;;5031497;28;20032;-78
2023/11/23 05:23:56;;;;;;;5.18;4.35;;;12.70;73.80;;;;;;5029597;28;20029;-76
2023/11/23 05:26:22;;;;;;;6.03;4.10;;;12.60;73.60;;;;;;5031492;28;20041;-77
2023/11/23 05:28:48;;;;;;;4.63;3.92;;;12.60;73.60;;;;;;5022998;28;20025;-77
2023/11/23 05:31:15;;;;;;;5.93;4.28;;;12.60;73.60;;;;;;5025745;28;20033;-77
2023/11/23 05:33:41;;;;;;;5.05;4.10;;;12.60;73.70;;;;;;5031789;28;20022;-78
2023/11/23 05:36:11;;;;;;;6.00;4.60;;;12.50;73.50;;;;;;5029648;28;20036;-77
2023/11/23 05:38:38;;;;;;;6.78;5.13;;;12.50;73.50;;;;;;5035010;28;20474;-78
2023/11/23 05:41:04;;;;;;;7.10;4.85;;;12.50;73.50;;;;;;5032654;28;20108;-78
2023/11/23 05:43:31;;;;;;;5.60;4.65;;;12.50;73.60;;;;;;5031900;28;20038;-77
2023/11/23 05:45:57;;;;;;;5.93;4.55;;;12.50;73.60;;;;;;5027052;28;20041;-77
2023/11/23 05:48:23;;;;;;;4.63;4.22;;;12.40;73.40;;;;;;5045676;28;20175;-78
2023/11/23 05:50:49;;;;;;;4.72;3.90;;;12.40;73.50;;;;;;5024452;28;20026;-78
2023/11/23 05:53:15;;;;;;;5.07;4.45;;;12.40;73.50;;;;;;5027078;28;20452;-78
2023/11/23 05:55:41;;;;;;;4.45;4.03;;;12.30;73.30;;;;;;5027204;28;20041;-78
2023/11/23 05:58:07;;;;;;;5.10;4.22;;;12.40;73.50;;;;;;5024687;28;20025;-78
2023/11/23 06:00:33;;;;;;;4.00;3.58;;;12.30;73.40;;;;;;5026860;28;20468;-78
2023/11/23 06:02:59;;;;;;;4.35;3.95;;;12.30;73.50;;;;;;5028412;28;20079;-77
2023/11/23 06:05:27;;;;;;;4.85;3.70;;;12.20;73.40;;;;;;5028269;28;20029;-78
2023/11/23 06:07:53;;;;;;;5.38;3.85;;;12.30;73.60;;;;;;5019614;28;20056;-77
2023/11/23 06:10:19;;;;;;;3.83;3.53;;;12.20;73.40;;;;;;5018545;28;20523;-76
2023/11/23 06:12:45;;;;;;;4.55;3.25;;;12.20;73.50;;;;;;5037343;28;20432;-77
2023/11/23 06:15:11;;;;;;;3.28;2.97;;;12.20;73.50;;;;;;5022108;28;20033;-76
2023/11/23 06:17:37;;;;;;;5.07;3.42;;;12.20;73.50;;;;;;5017541;28;20156;-77
2023/11/23 06:20:05;;;;;;;4.63;3.05;;;12.20;73.60;;;;;;5020825;28;20116;-77
2023/11/23 06:22:32;;;;;;;5.82;3.17;;;12.10;73.40;;;;;;5035855;28;20045;-76
2023/11/23 06:24:57;;;;;;;4.85;3.50;;;12.10;73.50;;;;;;5017183;28;20037;-77
2023/11/23 06:27:23;;;;;;;3.30;3.00;;;12.10;73.50;;;;;;5023730;28;20033;-76
2023/11/23 06:29:50;;;;;;;3.58;3.10;;;12.10;73.50;;;;;;5021264;28;20025;-76
2023/11/23 06:32:17;;;;;;;6.15;3.13;;;12.10;73.60;;;;;;5017881;28;20036;-77
2023/11/23 06:34:43;;;;;;;6.18;3.95;;;12.00;73.40;;;;;;5024297;28;20498;-78
2023/11/23 06:37:10;;;;;;;2.90;2.65;;;12.10;73.70;;;;;;5020442;28;20530;-77
2023/11/23 06:39:36;;;;;;;4.15;2.80;;;12.00;73.50;;;;;;5017679;28;20930;-78
2023/11/23 06:42:03;;;;;;;3.83;2.92;;;12.10;73.70;;;;;;5020038;28;20049;-78
2023/11/23 06:44:29;;;;;;;3.60;2.95;;;12.10;73.70;;;;;;5019186;28;20033;-77
2023/11/23 06:46:54;;;;;;;4.60;2.95;;;12.10;73.70;;;;;;5019806;28;20320;-77
2023/11/23 06:49:21;;;;;;;4.72;3.38;;;12.10;73.70;;;;;;5018390;28;20040;-78
2023/11/23 06:51:47;;;;;;;4.78;3.40;;;12.00;73.50;;;;;;5055227;28;20090;-77
2023/11/23 06:54:13;;;;;;;4.28;3.75;;;12.10;74.30;;;;;;5005292;28;20064;-77
2023/11/23 06:56:39;;;;;;;4.00;3.60;;;12.10;73.80;;;;;;5024425;28;20120;-78
2023/11/23 06:59:05;;;;;;;5.35;4.20;;;12.10;73.80;;;;;;5018635;28;20053;-78
2023/11/23 07:01:31;;;;;;;4.80;3.90;;;12.00;73.60;;;;;;5035954;28;20528;-77
2023/11/23 07:03:57;;;;;;;4.30;3.90;;;12.10;73.80;;;;;;5008605;28;20205;-80
2023/11/23 07:06:24;;;;;;;4.32;3.45;;;12.10;73.90;;;;;;5018317;28;20048;-79
2023/11/23 07:08:50;;;;;;;5.70;3.78;;;12.10;74.00;;;;;;5021763;28;20036;-78
2023/11/23 07:11:19;;;;;;;4.38;3.30;;;12.10;74.20;;;;;;5031964;28;20103;-79
2023/11/23 07:13:47;;;;;;;5.93;4.65;;;12.20;74.40;;;;;;5014357;28;20446;-79
2023/11/23 07:16:13;;;;;;;6.72;3.70;;;12.20;74.40;;;;;;5020705;28;20352;-77
2023/11/23 07:18:39;;;;;;;6.50;3.35;;;12.20;74.40;;;;;;5017159;28;20037;-77
2023/11/23 07:21:06;;;;;;;6.05;3.28;;;12.20;74.40;;;;;;5017424;28;20030;-78
2023/11/23 07:23:32;;;;;;;5.30;3.35;;;12.20;74.40;;;;;;5020192;28;20095;-78
2023/11/23 07:25:58;;;;;;;6.43;3.00;;;12.30;74.60;;;;;;5019706;28;20045;-79
2023/11/23 07:28:26;;;;;;;7.22;2.90;;;12.30;74.60;;;;;;5018541;28;20453;-78
2023/11/23 07:30:56;;;;;;;3.95;3.45;;;12.30;74.60;;;;;;5019616;28;20033;-78
2023/11/23 07:33:24;;;;;;;8.25;4.03;;;12.30;74.60;;;;;;5016203;28;20046;-78
2023/11/23 07:35:51;;;;;;;6.28;2.78;;;12.30;74.60;;;;;;5018188;28;20079;-78
2023/11/23 07:38:17;;;;;;;6.10;3.35;;;12.30;74.50;;;;;;5019478;28;20038;-79
2023/11/23 07:40:44;;;;;;;4.60;3.00;;;12.40;74.80;;;;;;5016784;28;20044;-80
2023/11/23 07:43:10;;;;;;;4.45;3.22;;;12.40;74.90;;;;;;5015098;28;20037;-78
2023/11/23 07:45:37;;;;;;;4.53;2.80;;;12.40;75.00;;;;;;5016801;28;20060;-77
2023/11/23 07:48:08;;;;;;;5.80;2.85;;;12.40;75.20;;;;;;5022767;28;20025;-77
2023/11/23 07:50:38;;;;;;;7.45;3.03;;;12.50;75.50;;;;;;5020031;28;20435;-77
2023/11/23 07:53:05;;;;;;;4.55;2.72;;;12.60;75.90;;;;;;5021101;28;20053;-78
2023/11/23 07:55:32;;;;;;;7.30;3.08;;;12.70;76.00;;;;;;5014893;28;20021;-78
2023/11/23 07:57:58;;;;;;;6.20;2.15;;;12.70;76.10;;;;;;5015272;28;20037;-78
2023/11/23 08:00:25;;;;;;;4.70;2.40;;;12.80;76.30;;;;;;5012665;28;20116;-78
2023/11/23 08:02:54;;;;;;;5.85;2.17;;;12.90;76.50;;;;;;5008142;28;20162;-78
2023/11/23 08:05:21;;;;;;;3.45;2.13;;;12.90;76.50;;;;;;5015544;28;20037;-78
2023/11/23 08:07:50;;;;;;;4.22;2.20;;;13.00;76.70;;;;;;5019441;28;20215;-78
2023/11/23 08:10:16;;;;;;;5.15;2.60;;;13.10;76.80;;;;;;5019347;28;20520;-78
2023/11/23 08:12:43;;;;;;;6.53;2.45;;;13.10;76.80;;;;;;5019133;28;20073;-77
2023/11/23 08:15:10;;;;;;;5.10;2.10;;;13.20;77.00;;;;;;5020222;28;20029;-77
2023/11/23 08:17:37;;;;;;;3.67;2.15;;;13.30;77.10;;;;;;5020299;28;20051;-78
2023/11/23 08:20:13;;;;;;;4.45;2.33;;;13.30;77.10;;;;;;5021626;28;20049;-78
2023/11/23 08:22:39;;;;;;;3.20;1.70;;;13.40;77.30;;;;;;5017761;28;20036;-78
2023/11/23 08:25:06;;;;;;;4.03;1.52;;;13.40;77.20;;;;;;5019937;28;20207;-79
2023/11/23 08:27:33;;;;;;;5.22;2.03;;;13.50;77.30;;;;;;5011430;28;20049;-78
2023/11/23 08:29:59;;;;;;;4.70;1.80;;;13.60;77.50;;;;;;5026956;28;20033;-78
2023/11/23 08:32:25;;;;;;;5.10;2.15;;;13.60;77.40;;;;;;5030243;28;20397;-78
2023/11/23 08:34:52;;;;;;;3.45;1.50;;;13.70;77.60;;;;;;5002146;28;20036;-78
2023/11/23 08:37:19;;;;;;;3.60;1.58;;;13.80;77.60;;;;;;5024892;28;20033;-79
2023/11/23 08:39:46;;;;;;;2.95;1.30;;;13.80;77.50;;;;;;5023545;28;20207;-79
2023/11/23 08:42:12;;;;;;;4.22;1.70;;;13.90;77.60;;;;;;5018162;28;20045;-79
2023/11/23 08:44:39;;;;;;;4.05;1.55;;;14.00;77.70;;;;;;5020174;28;20544;-78
2023/11/23 08:47:05;;;;;;;3.55;1.30;;;14.00;77.60;;;;;;5025195;28;20106;-79
2023/11/23 08:49:32;;;;;;;5.78;2.08;;;14.10;77.80;;;;;;5035785;28;20116;-78
2023/11/23 08:51:58;;;;;;;5.70;1.73;;;14.10;77.70;;;;;;5019107;28;20045;-78
2023/11/23 08:54:24;;;;;;;3.25;1.63;;;14.20;77.80;;;;;;5014550;28;20047;-79
2023/11/23 08:56:52;;;;;;;3.92;1.55;;;14.30;77.90;;;;;;5017093;28;20042;-80
2023/11/23 08:59:19;;;;;;;5.82;1.23;;;14.30;77.80;;;;;;5022199;28;20037;-77
2023/11/23 09:01:47;;;;;;;4.22;1.45;;;14.40;77.90;;;;;;5019691;28;20053;-80
2023/11/23 09:04:13;;;;;;;2.75;1.30;;;14.40;77.80;;;;;;5043583;28;20026;-79
2023/11/23 09:06:39;;;;;;;3.83;1.30;;;14.50;77.90;;;;;;5015213;28;20041;-79
2023/11/23 09:09:05;;;;;;;2.28;0.95;;;14.50;77.80;;;;;;5033952;28;20036;-80
2023/11/23 09:11:32;;;;;;;3.25;0.90;;;14.60;77.90;;;;;;5015432;28;20094;-79
2023/11/23 09:13:58;;;;;;;3.47;1.30;;;14.60;77.80;;;;;;5020777;28;20034;-80
2023/11/23 09:16:26;;;;;;;5.60;1.30;;;14.70;77.90;;;;;;5020146;28;20041;-79
2023/11/23 09:18:52;;;;;;;2.00;1.00;;;14.70;77.90;;;;;;5018904;28;20021;-78
2023/11/23 09:21:21;;;;;;;2.60;0.88;;;14.80;78.00;;;;;;5018948;28;20366;-84
2023/11/23 09:23:47;;;;;;;2.90;1.00;;;14.80;77.90;;;;;;5018290;28;20044;-79
2023/11/23 09:26:13;;;;;;;1.80;0.90;;;14.90;77.90;;;;;;5034135;28;20033;-79
2023/11/23 09:28:41;;;;;;;4.55;1.45;;;14.90;77.80;;;;;;5039681;28;20037;-79
2023/11/23 09:31:08;;;;;;;3.88;1.02;;;14.90;77.70;;;;;;5022683;28;20523;-79
2023/11/23 09:33:34;;;;;;;4.72;1.88;;;15.00;77.80;;;;;;5015179;28;20551;-79
2023/11/23 09:36:02;;;;;;;3.35;1.20;;;15.00;77.70;;;;;;5023804;28;20045;-80
2023/11/23 09:38:28;;;;;;;3.28;1.00;;;15.10;77.80;;;;;;5018710;28;20083;-79
2023/11/23 09:40:58;;;;;;;4.75;1.30;;;15.10;77.60;;;;;;5024398;28;20175;-78
2023/11/23 09:43:24;;;;;;;3.92;0.88;;;15.10;77.70;;;;;;5006693;28;20414;-78
2023/11/23 09:45:51;;;;;;;2.55;0.90;;;15.20;77.80;;;;;;5019931;28;20119;-78
2023/11/23 09:48:20;;;;;;;3.78;1.10;;;15.30;78.50;;;;;;5028727;28;20041;-79
2023/11/23 09:50:46;;;;;;;5.30;1.10;;;15.40;78.00;;;;;;5019462;28;20030;-78
2023/11/23 09:53:14;;;;;;;3.72;1.15;;;15.50;77.90;;;;;;5016722;28;20026;-77
2023/11/23 09:55:41;;;;;;;2.50;0.85;;;15.60;77.80;;;;;;5023377;28;20029;-78
2023/11/23 09:58:07;;;;;;;2.10;1.00;;;15.70;77.70;;;;;;5024703;28;20429;-78
2023/11/23 10:00:35;;;;;;;1.52;0.80;;;15.90;77.80;;;;;;5025364;28;20568;-78
2023/11/23 10:03:06;;;;;;;2.05;0.85;;;15.90;77.50;;;;;;5017192;28;20068;-77
2023/11/23 10:05:33;;;;;;;4.47;1.50;;;16.00;77.90;;;;;;5009194;28;20531;-77
2023/11/23 10:07:59;;;;;;;4.03;1.20;;;16.10;77.30;;;;;;5017889;28;20049;-78
2023/11/23 10:10:28;;;;;;;3.15;1.50;;;16.20;77.20;;;;;;5033781;28;20500;-78
2023/11/23 10:12:55;;;;;;;3.17;1.10;;;16.30;77.20;;;;;;5021883;28;20290;-78
2023/11/23 10:15:24;;;;;;;3.35;1.00;;;16.30;77.10;;;;;;5034113;28;20056;-78
2023/11/23 10:17:51;;;;;;;2.20;1.00;;;16.40;76.90;;;;;;5016055;28;20029;-77
2023/11/23 10:20:17;;;;;;;2.00;0.70;;;16.50;76.90;;;;;;5019953;28;20174;-78
2023/11/23 10:22:45;;;;;;;1.38;0.82;;;16.50;76.70;;;;;;5019049;28;20568;-78
2023/11/23 10:25:35;;;;;;;4.07;1.38;;;16.60;76.60;;;;;;5019705;28;20124;-79
2023/11/23 10:28:06;;;;;;;2.60;1.15;;;16.70;76.50;;;;;;5019670;28;20140;-78
2023/11/23 10:30:39;;;;;;;5.57;1.38;;;16.80;76.40;;;;;;5025044;28;20486;-78
2023/11/23 10:33:05;;;;;;;2.70;1.50;;;16.90;76.40;;;;;;5022763;28;20033;-77
2023/11/23 10:35:44;;;;;;;3.20;1.58;;;16.90;76.10;;;;;;5018586;28;20102;-78
2023/11/23 10:38:13;;;;;;;3.95;1.17;;;17.00;76.00;;;;;;5028666;28;20299;-79
2023/11/23 10:40:42;;;;;;;3.70;1.98;;;17.10;75.90;;;;;;5047823;28;20481;-78
2023/11/23 10:43:12;;;;;;;3.13;1.88;;;17.10;75.70;;;;;;5020671;28;20037;-78
2023/11/23 10:45:40;;;;;;;2.25;1.25;;;17.20;75.60;;;;;;5022183;28;20040;-79
2023/11/23 10:48:10;;;;;;;2.97;1.50;;;17.30;75.50;;;;;;5026414;28;20045;-78
2023/11/23 10:50:37;;;;;;;2.28;1.20;;;17.30;75.20;;;;;;5025720;28;20029;-79
2023/11/23 10:53:05;;;;;;;3.90;1.63;;;17.40;75.10;;;;;;5016807;28;20499;-78
2023/11/23 10:55:32;;;;;;;1.73;1.30;;;17.40;74.80;;;;;;5018779;28;20345;-78
2023/11/23 10:58:06;;;;;;;2.80;1.58;;;17.50;75.20;;;;;;5022469;28;20193;-78
2023/11/23 11:00:33;;;;;;;2.20;1.58;;;17.50;74.40;;;;;;5016286;28;20033;-77
2023/11/23 11:03:04;;;;;;;4.40;2.63;;;17.60;74.40;;;;;;5027111;28;20212;-78
2023/11/23 11:05:34;;;;;;;4.82;1.88;;;17.60;74.20;;;;;;5013140;28;20021;-78
2023/11/23 11:08:03;;;;;;;2.92;1.33;;;17.70;74.10;;;;;;5032981;28;20067;-78
2023/11/23 11:10:41;;;;;;;3.78;1.48;;;17.70;73.90;;;;;;5020517;28;20775;-77
2023/11/23 11:13:11;;;;;;;2.90;1.25;;;17.80;73.80;;;;;;5024449;28;20111;-77
2023/11/23 11:16:03;;;;;;;2.60;1.10;;;17.90;73.80;;;;;;5047364;28;20044;-77
2023/11/23 11:18:29;;;;;;;2.47;1.30;;;17.90;73.50;;;;;;5034174;28;20057;-77
2023/11/23 11:21:06;;;;;;;3.08;1.30;;;17.90;73.40;;;;;;5018599;28;20132;-78
2023/11/23 11:23:40;;;;;;;5.18;1.58;;;18.00;73.20;;;;;;5018579;28;20789;-77
2023/11/23 11:26:13;;;;;;;3.47;1.50;;;18.00;73.00;;;;;;5034533;28;20033;-77
2023/11/23 11:28:40;;;;;;;2.88;1.50;;;18.10;72.90;;;;;;5017825;28;20056;-76
2023/11/23 11:31:09;;;;;;;2.95;1.15;;;18.10;72.70;;;;;;5021438;28;20246;-78
2023/11/23 11:33:37;;;;;;;6.18;1.33;;;18.10;72.50;;;;;;5019791;28;20489;-76
2023/11/23 11:36:04;;;;;;;5.05;1.42;;;18.10;72.30;;;;;;5018547;28;20446;-77
2023/11/23 11:38:30;;;;;;;2.95;1.73;;;18.10;72.10;;;;;;5021053;28;20152;-78
2023/11/23 11:40:58;;;;;;;2.00;1.38;;;18.10;72.00;;;;;;5020153;28;20052;-76
2023/11/23 11:43:26;;;;;;;4.10;1.55;;;18.10;71.80;;;;;;5016973;28;20660;-77
2023/11/23 11:45:53;;;;;;;5.18;2.25;;;18.00;71.70;;;;;;5021030;28;20046;-78
2023/11/23 11:48:19;;;;;;;2.92;1.40;;;18.00;71.60;;;;;;5019378;28;20065;-79
2023/11/23 11:50:57;;;;;;;8.20;2.85;;;18.00;71.50;;;;;;5020714;28;20119;-78
2023/11/23 11:53:23;;;;;;;4.43;2.55;;;17.90;71.20;;;;;;5034205;28;20051;-77
2023/11/23 11:55:52;;;;;;;5.47;2.35;;;17.90;71.30;;;;;;5019747;28;20036;-77
2023/11/23 11:58:20;;;;;;;4.05;1.70;;;17.90;71.30;;;;;;5019386;28;20040;-77
2023/11/23 12:00:46;;;;;;;3.80;1.58;;;17.90;71.30;;;;;;5024728;28;20034;-77
2023/11/23 12:03:14;;;;;;;3.97;1.30;;;17.90;71.30;;;;;;5046667;28;20040;-77
2023/11/23 12:05:40;;;;;;;3.95;1.48;;;17.80;71.20;;;;;;5016066;28;20551;-77
2023/11/23 12:08:08;;;;;;;4.20;1.48;;;17.80;71.20;;;;;;5023225;28;20485;-77
2023/11/23 12:10:39;;;;;;;3.95;1.48;;;17.80;71.10;;;;;;5022573;28;20800;-77
2023/11/23 12:13:14;;;;;;;2.45;1.30;;;17.80;71.10;;;;;;5032507;28;20596;-77
2023/11/23 12:15:46;;;;;;;2.78;1.83;;;17.80;71.00;;;;;;5016377;28;20029;-77
2023/11/23 12:18:14;;;;;;;3.50;1.48;;;17.80;71.00;;;;;;5018474;28;20088;-77
2023/11/23 12:20:41;;;;;;;2.08;1.08;;;17.90;71.10;;;;;;5020796;28;20037;-79
2023/11/23 12:23:08;;;;;;;4.82;2.45;;;17.90;70.90;;;;;;5023638;28;20044;-79
2023/11/23 12:25:35;;;;;;;3.05;1.48;;;17.90;70.90;;;;;;5025328;28;20037;-79
2023/11/23 12:28:08;;;;;;;4.72;2.13;;;17.90;70.80;;;;;;5019376;28;20033;-79
2023/11/23 12:30:35;;;;;;;2.03;1.52;;;18.00;70.80;;;;;;5034568;28;20496;-79
2023/11/23 12:33:02;;;;;;;3.50;1.77;;;17.90;70.50;;;;;;5015086;28;20111;-80
2023/11/23 12:35:28;;;;;;;3.35;2.08;;;17.90;70.40;;;;;;5016603;28;20594;-80
2023/11/23 12:37:55;;;;;;;6.97;2.58;;;17.90;70.30;;;;;;5016426;28;20515;-79
2023/11/23 12:40:21;;;;;;;2.03;1.42;;;18.00;70.30;;;;;;5024861;28;20127;-78
2023/11/23 12:42:48;;;;;;;2.60;1.35;;;18.00;70.20;;;;;;5016399;28;20037;-78
2023/11/23 12:45:15;;;;;;;5.30;1.70;;;18.00;70.00;;;;;;5021980;28;20034;-79
2023/11/23 12:47:45;;;;;;;2.95;1.52;;;18.00;69.90;;;;;;5019279;28;20045;-79